createdAt,value
2023-05-11T00:00:40.253Z,16.66
2023-05-11T00:01:40.367Z,16.58
2023-05-11T00:02:40.375Z,16.61
2023-05-11T00:03:40.439Z,16.63
2023-05-11T00:04:40.360Z,16.63
2023-05-11T00:05:40.251Z,16.61
2023-05-11T00:06:40.240Z,16.49
2023-05-11T00:07:40.233Z,16.52
2023-05-11T00:08:40.238Z,16.41
2023-05-11T00:09:40.240Z,16.46
2023-05-11T00:10:40.251Z,16.52
2023-05-11T00:11:40.237Z,16.50
2023-05-11T00:12:40.245Z,16.57
2023-05-11T00:13:40.238Z,16.56
2023-05-11T00:14:40.243Z,16.61
2023-05-11T00:15:40.280Z,16.63
2023-05-11T00:16:40.248Z,16.60
2023-05-11T00:17:40.286Z,16.68
2023-05-11T00:18:40.268Z,16.61
2023-05-11T00:19:40.244Z,16.63
2023-05-11T00:20:40.243Z,16.46
2023-05-11T00:21:40.251Z,16.49
2023-05-11T00:22:41.194Z,16.48
2023-05-11T00:23:40.247Z,16.43
2023-05-11T00:24:40.254Z,16.46
2023-05-11T00:25:40.252Z,16.41
2023-05-11T00:26:40.256Z,16.38
2023-05-11T00:27:40.271Z,16.43
2023-05-11T00:28:40.256Z,16.30
2023-05-11T00:29:40.252Z,16.31
2023-05-11T00:30:40.253Z,16.31
2023-05-11T00:31:40.268Z,16.31
2023-05-11T00:32:40.280Z,16.35
2023-05-11T00:33:40.273Z,16.34
2023-05-11T00:34:40.252Z,16.34
2023-05-11T00:35:40.278Z,16.31
2023-05-11T00:36:41.371Z,16.35
2023-05-11T00:37:40.255Z,16.42
2023-05-11T00:38:40.259Z,16.38
2023-05-11T00:39:40.261Z,16.38
2023-05-11T00:40:40.263Z,16.27
2023-05-11T00:41:40.261Z,16.27
2023-05-11T00:42:40.258Z,16.14
2023-05-11T00:43:40.263Z,16.11
2023-05-11T00:44:40.266Z,16.15
2023-05-11T00:45:40.271Z,16.02
2023-05-11T00:46:40.295Z,16.12
2023-05-11T00:47:40.316Z,16.05
2023-05-11T00:48:40.271Z,16.01
2023-05-11T00:49:40.280Z,16.05
2023-05-11T00:50:40.263Z,16.08
2023-05-11T00:51:40.261Z,16.07
2023-05-11T00:52:40.283Z,16.11
2023-05-11T00:53:40.260Z,16.07
2023-05-11T00:54:40.265Z,16.08
2023-05-11T00:55:40.262Z,16.09
2023-05-11T00:56:40.268Z,16.08
2023-05-11T00:57:40.261Z,16.04
2023-05-11T00:58:40.266Z,16.05
2023-05-11T00:59:40.264Z,16.02
2023-05-11T01:00:40.301Z,16.02
2023-05-11T01:01:40.289Z,16.02
2023-05-11T01:02:40.478Z,16.02
2023-05-11T01:03:40.266Z,16.09
2023-05-11T01:04:40.281Z,16.08
2023-05-11T01:05:40.293Z,16.08
2023-05-11T01:06:40.273Z,16.15
2023-05-11T01:07:40.273Z,16.02
2023-05-11T01:08:40.277Z,16.00
2023-05-11T01:09:40.270Z,16.05
2023-05-11T01:10:40.277Z,16.05
2023-05-11T01:11:40.369Z,16.02
2023-05-11T01:12:40.276Z,15.97
2023-05-11T01:13:40.275Z,15.89
2023-05-11T01:14:40.281Z,15.92
2023-05-11T01:15:40.290Z,15.94
2023-05-11T01:16:40.389Z,15.93
2023-05-11T01:17:40.313Z,16.00
2023-05-11T01:18:40.343Z,15.97
2023-05-11T01:19:40.282Z,16.00
2023-05-11T01:20:40.284Z,16.05
2023-05-11T01:21:40.301Z,15.92
2023-05-11T01:22:40.294Z,16.07
2023-05-11T01:23:40.288Z,16.00
2023-05-11T01:24:40.292Z,15.90
2023-05-11T01:25:40.287Z,15.92
2023-05-11T01:26:40.292Z,15.94
2023-05-11T01:27:40.293Z,15.92
2023-05-11T01:28:40.294Z,16.01
2023-05-11T01:29:40.285Z,15.96
2023-05-11T01:30:40.294Z,15.96
2023-05-11T01:31:40.343Z,15.92
2023-05-11T01:32:41.792Z,15.92
2023-05-11T01:33:40.290Z,15.90
2023-05-11T01:34:40.288Z,15.87
2023-05-11T01:35:40.288Z,16.00
2023-05-11T01:36:40.305Z,16.01
2023-05-11T01:37:40.311Z,15.96
2023-05-11T01:38:40.315Z,15.90
2023-05-11T01:39:40.290Z,15.92
2023-05-11T01:40:40.293Z,15.87
2023-05-11T01:41:40.302Z,15.90
2023-05-11T01:42:40.296Z,15.92
2023-05-11T01:43:40.289Z,15.86
2023-05-11T01:44:40.291Z,15.82
2023-05-11T01:45:40.329Z,15.71
2023-05-11T01:46:40.349Z,15.76
2023-05-11T01:47:40.317Z,15.74
2023-05-11T01:48:40.310Z,15.65
2023-05-11T01:49:40.296Z,15.78
2023-05-11T01:50:40.297Z,15.72
2023-05-11T01:51:40.295Z,15.71
2023-05-11T01:52:40.299Z,15.64
2023-05-11T01:53:40.335Z,15.72
2023-05-11T01:54:40.298Z,15.71
2023-05-11T01:55:40.302Z,15.75
2023-05-11T01:56:40.302Z,15.76
2023-05-11T01:57:40.301Z,15.68
2023-05-11T01:58:40.311Z,15.68
2023-05-11T01:59:40.305Z,15.67
2023-05-11T02:00:40.298Z,15.67
2023-05-11T02:01:40.333Z,15.60
2023-05-11T02:02:40.381Z,15.51
2023-05-11T02:03:40.343Z,15.46
2023-05-11T02:04:40.308Z,15.41
2023-05-11T02:05:40.300Z,15.39
2023-05-11T02:06:40.310Z,15.32
2023-05-11T02:07:40.305Z,15.38
2023-05-11T02:08:40.300Z,15.46
2023-05-11T02:09:40.334Z,15.49
2023-05-11T02:10:40.308Z,15.47
2023-05-11T02:11:40.325Z,15.36
2023-05-11T02:12:40.305Z,15.41
2023-05-11T02:13:40.300Z,15.32
2023-05-11T02:14:40.310Z,15.27
2023-05-11T02:15:40.330Z,15.32
2023-05-11T02:16:40.312Z,15.39
2023-05-11T02:17:40.346Z,15.34
2023-05-11T02:18:40.424Z,15.31
2023-05-11T02:19:40.304Z,15.35
2023-05-11T02:20:40.310Z,15.29
2023-05-11T02:21:40.306Z,15.27
2023-05-11T02:22:40.321Z,15.19
2023-05-11T02:23:40.311Z,15.34
2023-05-11T02:24:40.311Z,15.19
2023-05-11T02:25:40.331Z,15.25
2023-05-11T02:26:40.310Z,15.09
2023-05-11T02:27:40.307Z,15.11
2023-05-11T02:28:40.319Z,15.25
2023-05-11T02:29:40.312Z,15.21
2023-05-11T02:30:40.317Z,15.20
2023-05-11T02:31:40.354Z,15.19
2023-05-11T02:32:40.321Z,15.19
2023-05-11T02:33:40.323Z,15.21
2023-05-11T02:34:40.318Z,15.25
2023-05-11T02:35:40.318Z,15.29
2023-05-11T02:36:40.317Z,15.34
2023-05-11T02:37:40.310Z,15.25
2023-05-11T02:38:40.315Z,15.25
2023-05-11T02:39:40.325Z,15.29
2023-05-11T02:40:40.316Z,15.27
2023-05-11T02:41:40.337Z,15.29
2023-05-11T02:42:40.322Z,15.35
2023-05-11T02:43:40.314Z,15.19
2023-05-11T02:44:40.326Z,15.23
2023-05-11T02:45:40.320Z,15.17
2023-05-11T02:46:40.348Z,15.20
2023-05-11T02:47:40.388Z,15.17
2023-05-11T02:48:40.324Z,15.06
2023-05-11T02:49:40.316Z,15.16
2023-05-11T02:50:40.330Z,15.07
2023-05-11T02:51:40.322Z,15.14
2023-05-11T02:52:40.321Z,15.10
2023-05-11T02:53:40.323Z,15.06
2023-05-11T02:54:40.324Z,15.03
2023-05-11T02:55:40.317Z,15.01
2023-05-11T02:56:40.323Z,15.09
2023-05-11T02:57:40.334Z,15.09
2023-05-11T02:58:40.320Z,15.03
2023-05-11T02:59:40.323Z,15.02
2023-05-11T03:00:40.393Z,15.06
2023-05-11T03:01:40.369Z,15.10
2023-05-11T03:02:40.380Z,15.01
2023-05-11T03:03:40.372Z,15.07
2023-05-11T03:04:40.320Z,14.99
2023-05-11T03:05:40.324Z,15.06
2023-05-11T03:06:40.328Z,15.02
2023-05-11T03:07:40.319Z,14.99
2023-05-11T03:08:40.323Z,14.98
2023-05-11T03:09:40.322Z,14.99
2023-05-11T03:10:40.323Z,15.02
2023-05-11T03:11:40.321Z,15.09
2023-05-11T03:12:40.324Z,15.11
2023-05-11T03:13:40.346Z,15.09
2023-05-11T03:14:40.328Z,15.06
2023-05-11T03:15:40.329Z,15.10
2023-05-11T03:16:40.354Z,15.11
2023-05-11T03:17:40.374Z,15.09
2023-05-11T03:18:40.333Z,15.06
2023-05-11T03:19:40.325Z,14.94
2023-05-11T03:20:40.333Z,14.96
2023-05-11T03:21:40.325Z,14.83
2023-05-11T03:22:40.330Z,14.89
2023-05-11T03:23:40.333Z,14.81
2023-05-11T03:24:40.334Z,14.83
2023-05-11T03:25:40.326Z,14.83
2023-05-11T03:26:40.336Z,14.77
2023-05-11T03:27:40.349Z,14.77
2023-05-11T03:28:40.331Z,14.75
2023-05-11T03:29:40.365Z,14.64
2023-05-11T03:30:40.330Z,14.70
2023-05-11T03:31:40.361Z,14.68
2023-05-11T03:32:40.411Z,14.69
2023-05-11T03:33:40.333Z,14.58
2023-05-11T03:34:40.335Z,14.65
2023-05-11T03:35:40.331Z,14.69
2023-05-11T03:36:40.332Z,14.69
2023-05-11T03:37:40.329Z,14.72
2023-05-11T03:38:40.331Z,14.75
2023-05-11T03:39:40.334Z,14.78
2023-05-11T03:40:40.330Z,14.75
2023-05-11T03:41:40.333Z,14.73
2023-05-11T03:42:40.337Z,14.78
2023-05-11T03:43:40.345Z,14.81
2023-05-11T03:44:40.333Z,14.75
2023-05-11T03:45:40.372Z,14.73
2023-05-11T03:46:40.396Z,14.77
2023-05-11T03:47:40.357Z,14.77
2023-05-11T03:48:40.341Z,14.69
2023-05-11T03:49:40.338Z,14.65
2023-05-11T03:50:40.337Z,14.61
2023-05-11T03:51:40.334Z,14.54
2023-05-11T03:52:40.339Z,14.64
2023-05-11T03:53:40.335Z,14.72
2023-05-11T03:54:40.335Z,14.69
2023-05-11T03:55:40.351Z,14.65
2023-05-11T03:56:40.347Z,14.78
2023-05-11T03:57:40.335Z,14.69
2023-05-11T03:58:40.346Z,14.77
2023-05-11T03:59:40.339Z,14.77
2023-05-11T04:00:40.336Z,14.88
2023-05-11T04:01:40.379Z,14.89
2023-05-11T04:02:40.410Z,14.84
2023-05-11T04:03:40.442Z,14.80
2023-05-11T04:04:40.451Z,14.89
2023-05-11T04:05:40.337Z,14.92
2023-05-11T04:06:40.333Z,14.80
2023-05-11T04:07:40.352Z,14.84
2023-05-11T04:08:40.338Z,14.83
2023-05-11T04:09:40.336Z,14.94
2023-05-11T04:10:40.339Z,14.84
2023-05-11T04:11:40.335Z,14.88
2023-05-11T04:12:40.337Z,14.91
2023-05-11T04:13:40.350Z,14.88
2023-05-11T04:14:40.335Z,15.03
2023-05-11T04:15:40.353Z,15.01
2023-05-11T04:16:40.418Z,14.95
2023-05-11T04:17:40.378Z,14.98
2023-05-11T04:18:40.366Z,15.01
2023-05-11T04:19:40.338Z,14.98
2023-05-11T04:20:40.333Z,15.02
2023-05-11T04:21:40.334Z,15.01
2023-05-11T04:22:40.341Z,15.16
2023-05-11T04:23:40.334Z,15.10
2023-05-11T04:24:40.345Z,15.06
2023-05-11T04:25:40.335Z,15.03
2023-05-11T04:26:40.338Z,15.13
2023-05-11T04:27:40.336Z,15.19
2023-05-11T04:28:40.338Z,15.21
2023-05-11T04:29:40.338Z,15.20
2023-05-11T04:30:40.335Z,15.21
2023-05-11T04:31:40.392Z,15.21
2023-05-11T04:32:40.361Z,15.29
2023-05-11T04:33:40.451Z,15.31
2023-05-11T04:34:40.339Z,15.31
2023-05-11T04:35:40.347Z,15.31
2023-05-11T04:36:40.342Z,15.28
2023-05-11T04:37:40.337Z,15.28
2023-05-11T04:38:40.359Z,15.38
2023-05-11T04:39:40.341Z,15.39
2023-05-11T04:40:40.338Z,15.41
2023-05-11T04:41:40.336Z,15.36
2023-05-11T04:42:40.337Z,15.41
2023-05-11T04:43:40.336Z,15.43
2023-05-11T04:44:40.336Z,15.50
2023-05-11T04:45:40.337Z,15.47
2023-05-11T04:46:40.366Z,15.49
2023-05-11T04:47:40.400Z,15.54
2023-05-11T04:48:40.334Z,15.54
2023-05-11T04:49:40.364Z,15.57
2023-05-11T04:50:40.340Z,15.64
2023-05-11T04:51:40.342Z,15.64
2023-05-11T04:52:40.338Z,15.75
2023-05-11T04:53:40.641Z,15.67
2023-05-11T04:54:40.344Z,15.69
2023-05-11T04:55:40.363Z,15.71
2023-05-11T04:56:40.358Z,15.89
2023-05-11T04:57:40.341Z,15.84
2023-05-11T04:58:40.362Z,15.87
2023-05-11T04:59:40.372Z,16.05
2023-05-11T05:00:40.341Z,15.89
2023-05-11T05:01:40.421Z,15.86
2023-05-11T05:02:40.383Z,16.00
2023-05-11T05:03:40.409Z,15.96
2023-05-11T05:04:40.339Z,15.97
2023-05-11T05:05:40.365Z,15.93
2023-05-11T05:06:40.352Z,15.97
2023-05-11T05:07:40.341Z,16.09
2023-05-11T05:08:40.338Z,16.09
2023-05-11T05:09:40.859Z,16.20
2023-05-11T05:10:40.339Z,16.21
2023-05-11T05:11:40.353Z,16.30
2023-05-11T05:12:40.339Z,16.41
2023-05-11T05:13:40.343Z,16.34
2023-05-11T05:14:40.343Z,16.39
2023-05-11T05:15:40.347Z,16.53
2023-05-11T05:16:40.379Z,16.50
2023-05-11T05:17:40.361Z,16.49
2023-05-11T05:18:40.383Z,16.52
2023-05-11T05:19:40.354Z,16.60
2023-05-11T05:20:40.346Z,16.61
2023-05-11T05:21:40.371Z,16.71
2023-05-11T05:22:40.343Z,16.61
2023-05-11T05:23:40.352Z,16.61
2023-05-11T05:24:40.359Z,16.70
2023-05-11T05:25:40.346Z,16.89
2023-05-11T05:26:40.352Z,16.88
2023-05-11T05:27:40.346Z,17.00
2023-05-11T05:28:40.350Z,16.89
2023-05-11T05:29:40.349Z,16.98
2023-05-11T05:30:40.376Z,17.04
2023-05-11T05:31:40.351Z,17.06
2023-05-11T05:32:40.389Z,17.14
2023-05-11T05:33:40.356Z,17.18
2023-05-11T05:34:40.346Z,17.31
2023-05-11T05:35:40.360Z,17.18
2023-05-11T05:36:40.345Z,17.14
2023-05-11T05:37:40.386Z,17.21
2023-05-11T05:38:40.347Z,17.38
2023-05-11T05:39:40.351Z,17.36
2023-05-11T05:40:40.347Z,17.46
2023-05-11T05:41:40.359Z,17.51
2023-05-11T05:42:40.363Z,17.71
2023-05-11T05:43:40.359Z,17.79
2023-05-11T05:44:40.349Z,17.78
2023-05-11T05:45:40.361Z,17.79
2023-05-11T05:46:40.491Z,17.82
2023-05-11T05:47:40.381Z,17.87
2023-05-11T05:48:40.354Z,18.07
2023-05-11T05:49:40.356Z,18.11
2023-05-11T05:50:40.353Z,18.14
2023-05-11T05:51:40.365Z,18.12
2023-05-11T05:52:40.357Z,18.20
2023-05-11T05:53:40.375Z,18.33
2023-05-11T05:54:40.366Z,18.42
2023-05-11T05:55:40.357Z,18.48
2023-05-11T05:56:40.352Z,18.45
2023-05-11T05:57:40.359Z,18.47
2023-05-11T05:58:40.357Z,18.58
2023-05-11T05:59:40.357Z,18.55
2023-05-11T06:00:40.355Z,18.51
2023-05-11T06:01:40.355Z,18.62
2023-05-11T06:02:40.417Z,18.72
2023-05-11T06:03:40.572Z,18.82
2023-05-11T06:04:40.390Z,18.84
2023-05-11T06:05:40.363Z,19.06
2023-05-11T06:06:40.383Z,19.11
2023-05-11T06:07:40.357Z,19.14
2023-05-11T06:08:40.355Z,19.23
2023-05-11T06:09:40.377Z,19.31
2023-05-11T06:10:40.391Z,19.39
2023-05-11T06:11:40.365Z,19.41
2023-05-11T06:12:40.359Z,19.48
2023-05-11T06:13:40.359Z,19.51
2023-05-11T06:14:40.360Z,19.66
2023-05-11T06:15:43.204Z,19.73
2023-05-11T06:55:24.136Z,21.62
2023-05-11T06:56:24.129Z,21.83
2023-05-11T06:57:24.117Z,21.82
2023-05-11T06:58:24.122Z,21.88
2023-05-11T06:59:24.135Z,22.02
2023-05-11T07:00:24.126Z,22.14
2023-05-11T07:01:24.174Z,22.07
2023-05-11T07:02:24.134Z,22.06
2023-05-11T07:03:24.123Z,22.27
2023-05-11T07:04:24.382Z,22.51
2023-05-11T07:05:24.134Z,22.24
2023-05-11T07:06:24.142Z,22.25
2023-05-11T07:07:24.132Z,22.33
2023-05-11T07:08:24.145Z,22.39
2023-05-11T07:09:24.129Z,22.47
2023-05-11T07:10:24.132Z,22.58
2023-05-11T07:11:24.146Z,22.72
2023-05-11T07:12:24.127Z,22.86
2023-05-11T07:13:24.135Z,22.95
2023-05-11T07:14:24.153Z,23.13
2023-05-11T07:15:24.477Z,23.22
2023-05-11T07:16:24.188Z,23.42
2023-05-11T07:17:24.153Z,23.40
2023-05-11T07:18:24.180Z,23.55
2023-05-11T07:19:24.142Z,23.54
2023-05-11T07:20:24.173Z,23.60
2023-05-11T07:21:24.141Z,23.57
2023-05-11T07:22:24.143Z,23.50
2023-05-11T07:23:24.151Z,23.55
2023-05-11T07:24:24.148Z,23.72
2023-05-11T07:25:24.139Z,23.85
2023-05-11T07:26:24.192Z,24.25
2023-05-11T07:27:24.167Z,24.47
2023-05-11T07:28:24.161Z,24.68
2023-05-11T07:29:24.157Z,24.96
2023-05-11T07:30:24.595Z,25.15
2023-05-11T07:31:24.242Z,25.36
2023-05-11T07:32:24.192Z,25.85
2023-05-11T07:33:24.159Z,25.87
2023-05-11T07:34:24.256Z,26.28
2023-05-11T07:35:24.474Z,26.80
2023-05-11T07:36:24.168Z,27.51
2023-05-11T07:37:24.178Z,27.97
2023-05-11T07:38:24.168Z,28.18
2023-05-11T07:39:24.176Z,28.24
2023-05-11T07:40:24.180Z,28.68
2023-05-11T07:41:24.164Z,29.04
2023-05-11T07:42:24.184Z,29.30
2023-05-11T07:43:24.190Z,29.27
2023-05-11T07:44:24.192Z,29.89
2023-05-11T07:45:24.178Z,30.39
2023-05-11T07:46:24.234Z,30.11
2023-05-11T07:47:24.220Z,29.95
2023-05-11T07:48:24.203Z,29.92
2023-05-11T07:49:35.171Z,30.24
2023-05-11T07:50:24.844Z,30.60
2023-05-11T07:51:24.197Z,31.06
2023-05-11T07:52:24.204Z,31.28
2023-05-11T07:53:24.205Z,31.73
2023-05-11T07:54:24.230Z,31.95
2023-05-11T07:55:24.212Z,31.28
2023-05-11T07:56:24.222Z,30.55
2023-05-11T07:57:24.221Z,29.97
2023-05-11T07:58:24.242Z,29.58
2023-05-11T07:59:24.265Z,29.87
2023-05-11T08:00:24.296Z,30.29
2023-05-11T08:01:24.246Z,30.07
2023-05-11T08:02:24.380Z,30.11
2023-05-11T08:03:24.283Z,30.57
2023-05-11T08:04:24.290Z,30.95
2023-05-11T08:05:24.310Z,30.98
2023-05-11T08:06:24.287Z,31.13
2023-05-11T08:07:24.277Z,31.14
2023-05-11T08:08:24.288Z,31.26
2023-05-11T08:09:24.298Z,31.25
2023-05-11T08:10:24.320Z,31.46
2023-05-11T08:11:24.305Z,31.54
2023-05-11T08:12:24.328Z,31.01
2023-05-11T08:13:25.846Z,30.86
2023-05-11T08:14:24.438Z,31.34
2023-05-11T08:15:24.384Z,31.66
2023-05-11T08:16:24.390Z,32.07
2023-05-11T08:17:24.377Z,32.18
2023-05-11T08:18:24.407Z,32.57
2023-05-11T08:19:24.387Z,33.09
2023-05-11T08:20:24.400Z,33.29
2023-05-11T08:21:24.415Z,33.47
2023-05-11T08:22:24.406Z,33.91
2023-05-11T08:23:24.424Z,34.24
2023-05-11T08:24:24.469Z,34.56
2023-05-11T08:25:24.448Z,35.03
2023-05-11T08:26:24.461Z,35.29
2023-05-11T08:27:24.473Z,35.10
2023-05-11T08:28:24.485Z,34.89
2023-05-11T08:29:24.488Z,34.92
2023-05-11T08:30:24.505Z,35.40
2023-05-11T08:31:24.584Z,35.47
2023-05-11T08:32:24.561Z,35.09
2023-05-11T08:34:24.828Z,34.46
2023-05-11T08:35:24.708Z,34.35
2023-05-11T08:36:24.584Z,33.91
2023-05-11T08:37:24.589Z,33.56
2023-05-11T08:38:24.609Z,33.94
2023-05-11T08:39:43.649Z,33.72
2023-05-11T08:40:24.633Z,33.54
2023-05-11T08:41:24.643Z,33.42
2023-05-11T08:42:24.660Z,33.90
2023-05-11T08:43:24.675Z,33.84
2023-05-11T08:44:24.689Z,33.60
2023-05-11T08:45:24.703Z,33.49
2023-05-11T08:46:24.784Z,32.44
2023-05-11T08:47:24.790Z,32.57
2023-05-11T08:48:24.760Z,33.11
2023-05-11T08:49:24.768Z,33.87
2023-05-11T08:50:24.784Z,33.95
2023-05-11T08:51:24.805Z,33.50
2023-05-11T08:52:24.814Z,32.92
2023-05-11T08:53:24.829Z,32.38
2023-05-11T08:54:24.836Z,32.33
2023-05-11T08:55:24.870Z,32.87
2023-05-11T08:56:24.872Z,33.01
2023-05-11T08:57:24.889Z,33.42
2023-05-11T08:58:24.904Z,33.26
2023-05-11T08:59:24.918Z,33.26
2023-05-11T09:00:24.931Z,33.69
2023-05-11T09:01:24.961Z,33.38
2023-05-11T09:02:25.018Z,33.37
2023-05-11T09:03:25.053Z,33.71
2023-05-11T09:04:24.996Z,34.02
2023-05-11T09:05:25.043Z,34.24
2023-05-11T09:06:25.047Z,34.87
2023-05-11T09:07:25.049Z,34.46
2023-05-11T09:08:25.068Z,34.50
2023-05-11T09:09:25.080Z,34.77
2023-05-11T09:10:25.103Z,34.24
2023-05-11T09:11:25.141Z,34.46
2023-05-11T09:12:25.151Z,34.44
2023-05-11T09:13:25.158Z,34.32
2023-05-11T09:14:27.660Z,34.13
2023-05-11T09:15:25.194Z,34.16
2023-05-11T09:16:36.373Z,34.87
2023-05-11T09:17:25.240Z,34.24
2023-05-11T09:18:25.266Z,34.61
2023-05-11T09:19:25.297Z,34.49
2023-05-11T09:20:25.299Z,32.78
2023-05-11T09:21:25.291Z,32.18
2023-05-11T09:22:25.821Z,32.03
2023-05-11T09:23:25.327Z,32.74
2023-05-11T09:24:25.350Z,32.55
2023-05-11T09:25:25.367Z,32.87
2023-05-11T09:26:25.386Z,32.70
2023-05-11T09:27:25.405Z,32.60
2023-05-11T09:28:26.006Z,32.57
2023-05-11T09:29:30.613Z,32.96
2023-05-11T09:30:25.465Z,32.56
2023-05-11T09:31:25.525Z,32.41
2023-05-11T09:32:25.584Z,31.56
2023-05-11T09:33:25.529Z,31.80
2023-05-11T09:34:25.536Z,32.21
2023-05-11T09:35:25.590Z,32.25
2023-05-11T09:36:25.568Z,32.59
2023-05-11T09:37:25.585Z,33.50
2023-05-11T09:38:25.617Z,33.73
2023-05-11T09:39:35.538Z,33.88
2023-05-11T09:40:27.707Z,34.37
2023-05-11T09:41:25.666Z,34.05
2023-05-11T09:42:25.678Z,34.09
2023-05-11T09:43:25.709Z,34.12
2023-05-11T09:44:25.721Z,34.12
2023-05-11T09:45:25.751Z,34.89
2023-05-11T09:46:25.836Z,35.15
2023-05-11T09:47:25.777Z,34.72
2023-05-11T09:48:25.804Z,34.94
2023-05-11T09:49:25.817Z,34.56
2023-05-11T09:50:26.568Z,34.32
2023-05-11T09:51:25.890Z,34.96
2023-05-11T09:52:25.875Z,34.61
2023-05-11T09:53:26.701Z,34.61
2023-05-11T09:54:25.923Z,34.46
2023-05-11T09:55:25.935Z,34.56
2023-05-11T09:56:25.956Z,34.21
2023-05-11T09:57:26.305Z,33.82
2023-05-11T09:58:26.008Z,33.53
2023-05-11T09:59:26.727Z,33.88
2023-05-11T10:00:26.043Z,34.73
2023-05-11T10:01:26.077Z,34.52
2023-05-11T10:02:26.326Z,34.09
2023-05-11T10:03:26.267Z,34.02
2023-05-11T10:04:26.203Z,34.08
2023-05-11T10:05:26.160Z,35.22
2023-05-11T10:06:26.162Z,35.97
2023-05-11T10:07:26.223Z,35.58
2023-05-11T10:08:26.207Z,35.41
2023-05-11T10:09:26.239Z,34.00
2023-05-11T10:10:26.249Z,33.09
2023-05-11T10:11:26.522Z,33.71
2023-05-11T10:12:26.291Z,33.88
2023-05-11T10:13:26.311Z,33.87
2023-05-11T10:14:26.346Z,33.38
2023-05-11T10:15:26.366Z,32.89
2023-05-11T10:16:26.427Z,33.63
2023-05-11T10:17:26.429Z,34.27
2023-05-11T10:18:26.451Z,35.15
2023-05-11T10:19:26.437Z,35.90
2023-05-11T10:20:26.464Z,36.80
2023-05-11T10:21:26.485Z,37.32
2023-05-11T10:22:26.534Z,37.27
2023-05-11T10:23:26.561Z,37.64
2023-05-11T10:24:26.552Z,37.21
2023-05-11T10:25:26.586Z,36.28
2023-05-11T10:26:26.611Z,35.10
2023-05-11T10:27:26.630Z,33.68
2023-05-11T10:28:26.653Z,32.50
2023-05-11T10:29:26.658Z,32.25
2023-05-11T10:30:26.690Z,32.50
2023-05-11T10:31:26.777Z,33.03
2023-05-11T10:32:26.736Z,33.38
2023-05-11T10:33:26.735Z,33.31
2023-05-11T10:34:26.770Z,32.84
2023-05-11T10:35:26.778Z,32.18
2023-05-11T10:36:26.804Z,32.82
2023-05-11T10:37:26.819Z,32.28
2023-05-11T10:38:26.845Z,32.04
2023-05-11T10:39:26.905Z,31.99
2023-05-11T10:40:26.892Z,32.06
2023-05-11T10:41:26.896Z,31.81
2023-05-11T10:42:26.932Z,32.57
2023-05-11T10:43:26.944Z,33.41
2023-05-11T10:44:26.955Z,34.17
2023-05-11T10:45:26.969Z,34.17
2023-05-11T10:46:30.210Z,34.87
2023-05-11T10:47:27.030Z,34.84
2023-05-11T10:48:27.043Z,35.09
2023-05-11T10:49:27.062Z,35.50
2023-05-11T10:50:27.130Z,36.16
2023-05-11T10:51:27.102Z,36.12
2023-05-11T10:52:28.846Z,36.19
2023-05-11T10:53:27.134Z,36.13
2023-05-11T10:54:27.158Z,36.34
2023-05-11T10:55:27.203Z,36.46
2023-05-11T10:56:27.206Z,36.27
2023-05-11T10:57:27.223Z,36.03
2023-05-11T10:58:27.246Z,36.25
2023-05-11T10:59:27.263Z,35.90
2023-05-11T11:00:27.348Z,36.17
2023-05-11T11:01:27.354Z,36.27
2023-05-11T11:02:27.362Z,36.25
2023-05-11T11:03:27.352Z,36.38
2023-05-11T11:04:29.732Z,36.31
2023-05-11T11:05:27.450Z,35.21
2023-05-11T11:06:27.422Z,33.82
2023-05-11T11:07:27.448Z,33.16
2023-05-11T11:08:27.468Z,32.30
2023-05-11T11:09:27.486Z,31.80
2023-05-11T11:10:27.503Z,30.65
2023-05-11T11:11:27.565Z,29.89
2023-05-11T11:12:27.545Z,29.52
2023-05-11T11:13:27.569Z,29.18
2023-05-11T11:14:27.584Z,28.90
2023-05-11T11:15:27.612Z,28.76
2023-05-11T11:16:27.649Z,28.48
2023-05-11T11:17:27.721Z,28.43
2023-05-11T11:18:27.715Z,28.34
2023-05-11T11:19:27.683Z,28.11
2023-05-11T11:20:27.701Z,27.75
2023-05-11T11:21:27.719Z,27.77
2023-05-11T11:22:27.735Z,27.46
2023-05-11T11:23:27.752Z,27.55
2023-05-11T11:24:27.761Z,27.67
2023-05-11T11:25:27.795Z,27.72
2023-05-11T11:26:27.799Z,27.99
2023-05-11T11:27:30.146Z,28.40
2023-05-11T11:28:27.829Z,28.58
2023-05-11T11:29:27.843Z,28.98
2023-05-11T11:30:27.851Z,29.12
2023-05-11T11:31:27.957Z,29.30
2023-05-11T11:32:27.931Z,28.71
2023-05-11T11:33:27.901Z,28.61
2023-05-11T11:34:27.926Z,28.59
2023-05-11T11:35:27.938Z,28.48
2023-05-11T11:36:27.942Z,28.31
2023-05-11T11:37:27.965Z,28.06
2023-05-11T11:38:29.446Z,27.96
2023-05-11T11:39:27.990Z,27.79
2023-05-11T11:40:32.115Z,27.75
2023-05-11T11:41:28.014Z,27.81
2023-05-11T11:42:28.018Z,27.92
2023-05-11T11:43:28.063Z,27.93
2023-05-11T11:44:28.057Z,27.90
2023-05-11T11:45:28.058Z,28.02
2023-05-11T11:46:28.134Z,28.19
2023-05-11T11:47:28.131Z,28.27
2023-05-11T11:48:28.091Z,28.56
2023-05-11T11:49:28.110Z,28.76
2023-05-11T11:50:28.112Z,28.88
2023-05-11T11:51:28.132Z,29.02
2023-05-11T11:52:28.147Z,29.00
2023-05-11T11:53:28.152Z,29.04
2023-05-11T11:54:28.156Z,29.11
2023-05-11T11:55:28.170Z,29.24
2023-05-11T11:56:28.181Z,29.00
2023-05-11T11:57:28.208Z,28.95
2023-05-11T11:58:28.200Z,29.14
2023-05-11T11:59:28.231Z,29.36
2023-05-11T12:00:28.224Z,29.64
2023-05-11T12:01:28.232Z,30.17
2023-05-11T12:02:28.314Z,30.99
2023-05-11T12:03:28.414Z,31.13
2023-05-11T12:04:28.490Z,30.70
2023-05-11T12:05:28.279Z,30.17
2023-05-11T12:06:28.282Z,29.86
2023-05-11T12:07:28.303Z,29.71
2023-05-11T12:08:28.309Z,30.23
2023-05-11T12:09:28.390Z,29.95
2023-05-11T12:10:28.330Z,29.30
2023-05-11T12:11:28.350Z,28.85
2023-05-11T12:12:28.348Z,28.55
2023-05-11T12:13:28.369Z,28.49
2023-05-11T12:14:28.374Z,28.29
2023-05-11T12:15:28.418Z,28.36
2023-05-11T12:16:28.426Z,28.41
2023-05-11T12:17:28.522Z,28.15
2023-05-11T12:18:28.442Z,27.94
2023-05-11T12:19:28.433Z,27.72
2023-05-11T12:20:28.436Z,27.75
2023-05-11T12:21:28.452Z,27.77
2023-05-11T12:22:28.459Z,27.72
2023-05-11T12:23:28.472Z,27.69
2023-05-11T12:24:28.476Z,27.90
2023-05-11T12:25:28.498Z,27.81
2023-05-11T12:26:28.508Z,27.85
2023-05-11T12:27:28.516Z,27.96
2023-05-11T12:28:28.518Z,27.92
2023-05-11T12:29:28.534Z,27.94
2023-05-11T12:30:28.566Z,28.17
2023-05-11T12:31:28.603Z,28.31
2023-05-11T12:32:28.609Z,28.39
2023-05-11T12:33:28.567Z,28.59
2023-05-11T12:34:28.575Z,28.95
2023-05-11T12:35:28.582Z,28.92
2023-05-11T12:36:28.597Z,28.98
2023-05-11T12:37:28.605Z,29.28
2023-05-11T12:38:28.635Z,29.26
2023-05-11T12:39:28.627Z,29.43
2023-05-11T12:40:28.627Z,29.06
2023-05-11T12:41:28.651Z,29.73
2023-05-11T12:42:28.649Z,29.74
2023-05-11T12:43:28.660Z,29.63
2023-05-11T12:44:28.665Z,29.18
2023-05-11T12:45:28.678Z,29.30
2023-05-11T12:46:28.719Z,29.06
2023-05-11T12:47:28.743Z,29.04
2023-05-11T12:48:28.718Z,29.19
2023-05-11T12:49:28.723Z,29.34
2023-05-11T12:50:28.733Z,29.31
2023-05-11T12:51:28.741Z,29.36
2023-05-11T12:52:28.751Z,29.27
2023-05-11T12:53:28.763Z,28.96
2023-05-11T12:54:28.797Z,29.02
2023-05-11T12:55:28.780Z,29.06
2023-05-11T12:56:28.784Z,29.41
2023-05-11T12:57:28.806Z,30.01
2023-05-11T12:58:28.800Z,30.51
2023-05-11T12:59:28.816Z,30.26
2023-05-11T13:00:28.826Z,29.70
2023-05-11T13:01:28.886Z,29.31
2023-05-11T13:02:28.916Z,29.34
2023-05-11T13:03:29.147Z,28.86
2023-05-11T13:04:28.855Z,28.77
2023-05-11T13:05:28.897Z,28.89
2023-05-11T13:06:28.878Z,28.93
2023-05-11T13:07:28.884Z,28.98
2023-05-11T13:08:28.908Z,28.77
2023-05-11T13:09:28.898Z,28.52
2023-05-11T13:10:28.917Z,28.40
2023-05-11T13:11:28.926Z,28.51
2023-05-11T13:12:31.657Z,28.44
2023-05-11T13:13:28.981Z,28.43
2023-05-11T13:14:28.950Z,28.59
2023-05-11T13:15:28.966Z,28.46
2023-05-11T13:16:29.155Z,28.52
2023-05-11T13:17:28.991Z,28.51
2023-05-11T13:18:29.009Z,28.34
2023-05-11T13:19:29.021Z,28.27
2023-05-11T13:20:29.001Z,28.11
2023-05-11T13:21:29.009Z,28.00
2023-05-11T13:22:29.022Z,27.96
2023-05-11T13:23:29.020Z,28.12
2023-05-11T13:24:29.029Z,28.36
2023-05-11T13:25:29.034Z,28.33
2023-05-11T13:26:29.080Z,28.49
2023-05-11T13:27:29.050Z,28.66
2023-05-11T13:28:29.060Z,28.40
2023-05-11T13:29:29.067Z,28.83
2023-05-11T13:30:29.097Z,28.93
2023-05-11T13:31:29.290Z,29.06
2023-05-11T13:32:29.127Z,29.36